createdAt,value
2022-12-01T00:01:46.472Z,13.97
2022-12-01T00:04:15.342Z,14.43
2022-12-01T00:06:44.354Z,13.10
2022-12-01T00:09:31.083Z,12.43
2022-12-01T00:12:02.364Z,12.37
2022-12-01T00:14:32.267Z,12.40
2022-12-01T00:17:00.362Z,11.40
2022-12-01T00:19:28.884Z,12.70
2022-12-01T00:22:03.266Z,12.40
2022-12-01T00:24:31.267Z,13.93
2022-12-01T00:27:00.441Z,14.17
2022-12-01T00:29:28.527Z,12.70
2022-12-01T00:31:58.791Z,12.33
2022-12-01T00:34:28.127Z,12.90
2022-12-01T00:37:00.425Z,12.73
2022-12-01T00:39:29.376Z,14.13
2022-12-01T00:41:57.453Z,13.27
2022-12-01T00:44:26.374Z,12.93
2022-12-01T00:46:54.855Z,15.17
2022-12-01T00:49:24.397Z,13.23
2022-12-01T00:51:52.431Z,12.63
2022-12-01T00:54:21.392Z,13.93
2022-12-01T00:56:49.956Z,13.43
2022-12-01T00:59:18.141Z,13.43
2022-12-01T01:01:52.011Z,11.57
2022-12-01T01:04:21.374Z,14.33
2022-12-01T01:06:51.367Z,12.27
2022-12-01T01:09:20.292Z,13.87
2022-12-01T01:11:48.452Z,14.57
2022-12-01T01:14:18.387Z,12.73
2022-12-01T01:16:47.464Z,13.63
2022-12-01T01:19:17.493Z,12.80
2022-12-01T01:21:45.945Z,15.23
2022-12-01T01:24:19.154Z,15.70
2022-12-01T01:26:50.296Z,14.50
2022-12-01T01:29:18.394Z,14.63
2022-12-01T01:31:46.312Z,14.13
2022-12-01T01:34:15.431Z,14.00
2022-12-01T01:36:48.259Z,13.07
2022-12-01T01:39:19.414Z,14.73
2022-12-01T01:41:48.366Z,14.60
2022-12-01T01:44:51.303Z,13.13
2022-12-01T01:47:27.667Z,13.53
2022-12-01T01:49:59.166Z,14.13
2022-12-01T01:52:30.399Z,13.20
2022-12-01T01:55:00.376Z,15.03
2022-12-01T01:57:33.135Z,13.80
2022-12-01T02:00:07.436Z,15.00
2022-12-01T02:02:47.482Z,13.83
2022-12-01T02:05:23.140Z,14.40
2022-12-01T02:07:58.491Z,13.90
2022-12-01T02:10:40.451Z,14.40
2022-12-01T02:13:19.295Z,13.73
2022-12-01T02:15:54.389Z,13.67
2022-12-01T02:18:35.283Z,13.07
2022-12-01T02:21:31.201Z,13.13
2022-12-01T02:24:48.313Z,25.20
2022-12-01T02:27:37.832Z,15.37
2022-12-01T02:30:12.297Z,15.50
2022-12-01T02:32:59.476Z,14.03
2022-12-01T02:35:34.811Z,16.20
2022-12-01T02:38:15.416Z,15.30
2022-12-01T02:40:49.432Z,16.17
2022-12-01T02:43:24.436Z,13.77
2022-12-01T02:45:57.358Z,15.17
2022-12-01T02:48:31.685Z,15.53
2022-12-01T02:51:04.205Z,15.13
2022-12-01T02:53:33.324Z,16.47
2022-12-01T02:56:04.522Z,15.27
2022-12-01T02:58:32.836Z,16.40
2022-12-01T03:01:12.626Z,15.43
2022-12-01T03:03:57.512Z,15.27
2022-12-01T03:06:38.186Z,17.70
2022-12-01T03:09:15.989Z,15.27
2022-12-01T03:11:51.390Z,15.03
2022-12-01T03:14:33.543Z,15.27
2022-12-01T03:17:06.460Z,15.70
2022-12-01T03:19:42.488Z,17.17
2022-12-01T03:22:15.423Z,15.33
2022-12-01T03:24:48.319Z,15.47
2022-12-01T03:27:20.444Z,16.77
2022-12-01T03:29:52.078Z,17.63
2022-12-01T03:32:25.392Z,16.50
2022-12-01T03:35:00.553Z,16.10
2022-12-01T03:37:35.461Z,16.90
2022-12-01T03:40:07.335Z,15.10
2022-12-01T03:42:39.436Z,16.60
2022-12-01T03:45:14.385Z,16.13
2022-12-01T03:47:43.431Z,14.57
2022-12-01T03:50:14.723Z,17.40
2022-12-01T03:52:50.446Z,16.03
2022-12-01T03:55:24.048Z,16.53
2022-12-01T03:58:02.675Z,17.03
2022-12-01T04:00:31.373Z,14.17
2022-12-01T04:03:02.180Z,16.80
2022-12-01T04:05:33.370Z,16.33
2022-12-01T04:08:03.246Z,15.10
2022-12-01T04:10:33.039Z,14.97
2022-12-01T04:13:05.388Z,14.90
2022-12-01T04:15:34.325Z,14.47
2022-12-01T04:18:03.063Z,15.33
2022-12-01T04:20:36.379Z,15.23
2022-12-01T04:23:04.447Z,16.90
2022-12-01T04:25:34.201Z,14.77
2022-12-01T04:28:02.452Z,15.53
2022-12-01T04:30:30.380Z,16.17
2022-12-01T04:33:02.487Z,14.87
2022-12-01T04:35:30.409Z,14.90
2022-12-01T04:38:02.525Z,16.20
2022-12-01T04:40:31.471Z,18.53
2022-12-01T04:43:00.420Z,17.47
2022-12-01T04:45:30.377Z,16.17
2022-12-01T04:47:58.495Z,15.73
2022-12-01T04:50:32.041Z,17.87
2022-12-01T04:53:01.481Z,16.27
2022-12-01T04:55:32.639Z,16.93
2022-12-01T04:58:05.028Z,17.10
2022-12-01T05:00:33.151Z,15.90
2022-12-01T05:03:01.548Z,15.70
2022-12-01T05:05:29.585Z,18.23
2022-12-01T05:08:00.469Z,16.87
2022-12-01T05:10:29.895Z,16.80
2022-12-01T05:12:58.131Z,16.93
2022-12-01T05:15:26.915Z,17.00
2022-12-01T05:17:54.912Z,16.90
2022-12-01T05:20:45.703Z,16.07
2022-12-01T05:23:16.713Z,17.77
2022-12-01T05:25:46.635Z,17.88
2022-12-01T05:28:14.623Z,16.57
2022-12-01T05:30:42.569Z,17.30
2022-12-01T05:33:10.737Z,15.53
2022-12-01T05:35:38.799Z,15.30
2022-12-01T05:38:10.161Z,14.87
2022-12-01T05:40:38.526Z,14.03
2022-12-01T05:43:08.447Z,15.43
2022-12-01T05:45:38.539Z,15.90
2022-12-01T05:48:06.914Z,16.47
2022-12-01T05:50:38.465Z,15.13
2022-12-01T05:53:08.741Z,15.93
2022-12-01T05:55:36.718Z,15.50
2022-12-01T05:58:07.437Z,14.67
2022-12-01T06:00:39.614Z,14.17
2022-12-01T06:03:14.309Z,14.67
2022-12-01T06:05:42.525Z,14.93
2022-12-01T06:11:04.502Z,15.17
2022-12-01T06:13:33.833Z,18.63
2022-12-01T06:16:03.502Z,15.80
2022-12-01T06:18:34.504Z,17.30
2022-12-01T06:21:02.876Z,13.70
2022-12-01T06:23:32.528Z,15.33
2022-12-01T06:26:01.110Z,15.90
2022-12-01T06:28:29.106Z,14.07
2022-12-01T06:31:03.148Z,13.10
2022-12-01T06:33:32.581Z,13.67
2022-12-01T06:36:00.885Z,14.87
2022-12-01T06:38:35.501Z,14.80
2022-12-01T06:41:07.197Z,15.40
2022-12-01T06:43:37.595Z,14.50
2022-12-01T06:46:08.602Z,14.80
2022-12-01T06:48:36.597Z,14.30
2022-12-01T06:51:05.677Z,15.83
2022-12-01T06:53:37.039Z,18.03
2022-12-01T06:56:06.484Z,20.27
2022-12-01T06:58:35.621Z,18.43
2022-12-01T07:01:10.674Z,20.50
2022-12-01T07:03:39.216Z,18.80
2022-12-01T07:06:07.443Z,20.77
2022-12-01T07:08:38.170Z,19.87
2022-12-01T07:11:08.328Z,17.47
2022-12-01T07:13:38.541Z,19.00
2022-12-01T07:16:07.664Z,20.80
2022-12-01T07:18:40.666Z,19.07
2022-12-01T07:21:11.421Z,18.13
2022-12-01T07:23:40.397Z,21.47
2022-12-01T07:26:11.804Z,17.37
2022-12-01T07:28:40.508Z,17.47
2022-12-01T07:31:10.094Z,17.13
2022-12-01T07:33:40.044Z,17.50
2022-12-01T07:36:09.418Z,20.20
2022-12-01T07:38:37.900Z,15.40
2022-12-01T07:41:07.338Z,17.27
2022-12-01T07:43:36.228Z,19.80
2022-12-01T07:46:08.806Z,18.67
2022-12-01T07:48:38.240Z,17.07
2022-12-01T07:51:08.338Z,16.33
2022-12-01T07:53:38.529Z,17.40
2022-12-01T07:56:10.027Z,18.50
2022-12-01T07:58:38.381Z,18.87
2022-12-01T08:01:12.587Z,18.27
2022-12-01T08:03:41.496Z,17.23
2022-12-01T08:06:11.431Z,19.93
2022-12-01T08:08:41.815Z,18.00
2022-12-01T08:11:12.629Z,18.93
2022-12-01T08:13:41.538Z,20.10
2022-12-01T08:16:13.658Z,17.73
2022-12-01T08:18:43.439Z,18.60
2022-12-01T08:21:18.362Z,17.27
2022-12-01T08:23:49.789Z,19.97
2022-12-01T08:26:19.708Z,18.40
2022-12-01T08:28:48.557Z,18.10
2022-12-01T08:31:19.045Z,19.30
2022-12-01T08:33:47.755Z,19.73
2022-12-01T08:36:19.063Z,18.03
2022-12-01T08:38:52.809Z,19.00
2022-12-01T08:41:24.771Z,20.57
2022-12-01T08:43:58.370Z,21.13
2022-12-01T08:46:31.436Z,24.97
2022-12-01T08:49:00.527Z,25.27
2022-12-01T08:51:30.517Z,24.27
2022-12-01T08:54:00.549Z,22.73
2022-12-01T08:56:31.236Z,23.10
2022-12-01T08:59:00.409Z,24.20
2022-12-01T09:01:29.953Z,22.13
2022-12-01T09:04:08.820Z,25.73
2022-12-01T09:06:41.830Z,22.53
2022-12-01T09:09:10.836Z,19.83
2022-12-01T09:11:44.446Z,18.93
2022-12-01T09:14:13.521Z,19.03
2022-12-01T09:16:44.604Z,20.37
2022-12-01T09:19:13.409Z,24.87
2022-12-01T09:21:45.356Z,26.30
2022-12-01T09:24:14.567Z,27.37
2022-12-01T09:26:43.525Z,28.23
2022-12-01T09:29:14.627Z,29.10
2022-12-01T09:31:43.330Z,28.80
2022-12-01T09:34:19.005Z,26.47
2022-12-01T09:36:49.109Z,26.10
2022-12-01T09:39:20.105Z,26.47
2022-12-01T09:41:51.392Z,31.07
2022-12-01T09:44:31.934Z,25.73
2022-12-01T09:47:10.644Z,28.93
2022-12-01T09:49:46.630Z,23.10
2022-12-01T09:52:19.853Z,23.10
2022-12-01T09:54:48.426Z,24.63
2022-12-01T09:57:28.188Z,24.37
2022-12-01T10:00:00.469Z,25.20
2022-12-01T10:02:35.694Z,54.60
2022-12-01T10:05:07.234Z,31.57
2022-12-01T10:07:45.745Z,23.23
2022-12-01T10:10:17.481Z,24.40
2022-12-01T10:12:48.533Z,19.97
2022-12-01T10:15:27.473Z,21.10
2022-12-01T10:18:05.898Z,19.83
2022-12-01T10:20:42.122Z,21.40
2022-12-01T10:23:30.496Z,19.27
2022-12-01T10:26:00.040Z,22.73
2022-12-01T10:28:52.483Z,21.27
2022-12-01T10:31:25.643Z,22.80
2022-12-01T10:34:02.578Z,20.13
2022-12-01T10:36:33.591Z,22.67
2022-12-01T10:39:05.532Z,20.13
2022-12-01T10:41:40.581Z,21.43
2022-12-01T10:44:10.599Z,22.93
2022-12-01T10:46:44.424Z,21.30
2022-12-01T10:49:16.613Z,21.03
2022-12-01T10:51:50.507Z,20.73
2022-12-01T10:54:21.583Z,32.30
2022-12-01T10:56:52.636Z,27.80
2022-12-01T10:59:32.470Z,23.27
2022-12-01T11:02:02.630Z,22.73
2022-12-01T11:04:45.420Z,22.73
2022-12-01T11:07:20.638Z,21.77
2022-12-01T11:10:16.626Z,22.93
2022-12-01T11:12:47.768Z,23.33
2022-12-01T11:15:23.567Z,21.23
2022-12-01T11:17:59.698Z,24.73
2022-12-01T11:20:34.172Z,22.93
2022-12-01T11:23:29.865Z,24.50
2022-12-01T11:26:05.306Z,23.63
2022-12-01T11:28:36.599Z,26.00
2022-12-01T11:31:07.146Z,26.80
2022-12-01T11:33:44.598Z,29.23
2022-12-01T11:36:21.931Z,26.23
2022-12-01T11:38:52.865Z,28.87
2022-12-01T11:41:31.158Z,26.77
2022-12-01T11:44:06.324Z,26.90
2022-12-01T11:46:46.502Z,32.40
2022-12-01T11:49:21.626Z,26.70
2022-12-01T11:51:49.980Z,28.60
2022-12-01T11:54:24.346Z,28.03
2022-12-01T11:57:31.876Z,30.13
2022-12-01T11:59:48.898Z,31.80
2022-12-01T12:02:30.719Z,30.40
2022-12-01T12:05:36.986Z,29.03
2022-12-01T12:08:13.728Z,28.00
2022-12-01T12:10:49.689Z,29.40
2022-12-01T12:13:42.763Z,32.63
2022-12-01T12:16:19.659Z,29.87
2022-12-01T12:19:12.495Z,33.67
2022-12-01T12:21:49.764Z,33.47
2022-12-01T12:24:34.539Z,35.93
2022-12-01T12:27:15.374Z,32.83
2022-12-01T12:29:59.576Z,29.27
2022-12-01T12:32:45.500Z,31.67
2022-12-01T12:35:29.835Z,30.60
2022-12-01T12:38:07.186Z,28.73
2022-12-01T12:40:43.108Z,32.00
2022-12-01T12:43:26.879Z,32.67
2022-12-01T12:46:07.387Z,30.00
2022-12-01T12:49:18.786Z,28.73
2022-12-01T12:51:50.607Z,31.07
2022-12-01T12:54:24.817Z,31.93
2022-12-01T12:56:59.648Z,32.47
2022-12-01T12:59:32.614Z,30.90
2022-12-01T13:02:10.015Z,45.27
2022-12-01T13:04:44.362Z,31.87
2022-12-01T13:07:30.131Z,27.30
2022-12-01T13:10:03.995Z,24.03
2022-12-01T13:12:35.703Z,28.53
2022-12-01T13:15:15.511Z,22.63
2022-12-01T13:17:52.505Z,24.13
2022-12-01T13:20:24.184Z,25.40
2022-12-01T13:22:54.424Z,23.73
2022-12-01T13:25:27.187Z,25.37
2022-12-01T13:27:57.209Z,23.67
2022-12-01T13:30:26.936Z,23.90
2022-12-01T13:33:05.038Z,24.93
2022-12-01T13:35:36.366Z,21.03
2022-12-01T13:38:33.999Z,22.53
2022-12-01T13:41:23.921Z,20.33
2022-12-01T13:44:08.694Z,15.63
2022-12-01T13:46:52.893Z,16.77
2022-12-01T13:49:40.543Z,18.37
2022-12-01T13:52:29.444Z,15.60
2022-12-01T13:55:16.734Z,24.17
2022-12-01T13:57:48.600Z,13.50
2022-12-01T14:00:26.209Z,13.43
2022-12-01T14:03:32.708Z,13.13
2022-12-01T14:06:11.525Z,18.30
2022-12-01T14:08:48.885Z,13.67
2022-12-01T14:11:24.419Z,15.52
2022-12-01T14:13:56.331Z,14.07
2022-12-01T14:16:26.333Z,14.30
2022-12-01T14:18:57.778Z,16.67
2022-12-01T14:21:44.815Z,12.60
2022-12-01T14:24:28.540Z,13.13
2022-12-01T14:26:57.286Z,13.43
2022-12-01T14:29:29.661Z,14.77
2022-12-01T14:32:26.470Z,16.67
2022-12-01T14:35:02.598Z,14.90
2022-12-01T14:37:40.679Z,13.60
2022-12-01T14:40:14.645Z,15.23
2022-12-01T14:43:04.531Z,18.90
2022-12-01T14:45:36.696Z,15.77
2022-12-01T14:48:06.636Z,16.47
2022-12-01T14:50:45.082Z,14.20
2022-12-01T14:53:24.619Z,12.17
2022-12-01T14:55:57.363Z,12.60
2022-12-01T14:58:28.934Z,15.03
2022-12-01T15:01:05.858Z,13.43
2022-12-01T15:03:40.579Z,17.33
2022-12-01T15:06:09.585Z,15.53
2022-12-01T15:08:45.733Z,18.80
2022-12-01T15:11:22.283Z,20.83
2022-12-01T15:13:52.216Z,14.87
2022-12-01T15:16:23.349Z,16.50
2022-12-01T15:18:52.547Z,17.40
2022-12-01T15:21:27.655Z,13.30
2022-12-01T15:24:02.661Z,14.73
2022-12-01T15:26:32.557Z,13.43
2022-12-01T15:29:16.417Z,15.53
2022-12-01T15:31:46.756Z,16.20
2022-12-01T15:34:18.650Z,17.17
2022-12-01T15:36:48.366Z,14.27
2022-12-01T15:39:24.398Z,14.77
2022-12-01T15:41:54.580Z,13.67
2022-12-01T15:44:28.700Z,14.87
2022-12-01T15:46:58.284Z,14.10
2022-12-01T15:49:29.723Z,19.10
2022-12-01T15:52:07.398Z,14.67
2022-12-01T15:54:38.555Z,15.37
2022-12-01T15:57:09.582Z,11.47
2022-12-01T15:59:40.189Z,11.87
2022-12-01T16:02:25.718Z,11.07
2022-12-01T16:05:03.387Z,11.43
2022-12-01T16:08:11.494Z,14.30
2022-12-01T16:10:30.396Z,14.27
2022-12-01T16:13:35.853Z,15.50
2022-12-01T16:16:29.800Z,19.37
2022-12-01T16:19:00.807Z,14.53
2022-12-01T16:21:29.962Z,15.57
2022-12-01T16:24:02.468Z,16.13
2022-12-01T16:26:33.916Z,17.67
2022-12-01T16:29:01.981Z,15.83
2022-12-01T16:31:30.089Z,15.73
2022-12-01T16:34:13.784Z,15.23
2022-12-01T16:36:47.209Z,14.87
2022-12-01T16:39:15.791Z,16.07
2022-12-01T16:41:46.907Z,15.23
2022-12-01T16:44:31.118Z,15.87
2022-12-01T16:47:01.488Z,19.03
2022-12-01T16:49:29.629Z,18.17
2022-12-01T16:52:03.600Z,20.63
2022-12-01T16:54:39.406Z,24.07
2022-12-01T16:57:08.964Z,23.40
2022-12-01T16:59:37.598Z,23.23
2022-12-01T17:02:05.727Z,21.13
2022-12-01T17:04:36.512Z,23.13
2022-12-01T17:07:05.205Z,25.13
2022-12-01T17:09:36.577Z,23.00
2022-12-01T17:12:05.908Z,23.40
2022-12-01T17:14:36.721Z,27.03
2022-12-01T17:17:08.548Z,22.53
2022-12-01T17:19:36.788Z,20.80
2022-12-01T17:22:04.906Z,20.57
2022-12-01T17:24:33.011Z,22.43
2022-12-01T17:27:01.036Z,22.33
2022-12-01T17:29:29.090Z,23.37
2022-12-01T17:31:58.476Z,23.00
2022-12-01T17:34:26.432Z,22.83
2022-12-01T17:36:57.245Z,23.77
2022-12-01T17:39:25.221Z,26.23
2022-12-01T17:41:55.335Z,23.97
2022-12-01T17:44:23.467Z,27.53
2022-12-01T17:46:51.588Z,24.93
2022-12-01T17:49:21.247Z,23.50
2022-12-01T17:51:49.466Z,35.83
2022-12-01T17:54:19.440Z,22.53
2022-12-01T17:56:48.100Z,27.17
2022-12-01T17:59:16.114Z,25.83
2022-12-01T18:01:44.526Z,23.60
2022-12-01T18:04:12.689Z,27.53
2022-12-01T18:06:42.029Z,22.50
2022-12-01T18:09:13.448Z,23.67
2022-12-01T18:11:41.409Z,24.70
2022-12-01T18:14:09.440Z,25.30
2022-12-01T18:16:37.615Z,25.93
2022-12-01T18:19:05.702Z,25.00
2022-12-01T18:21:33.695Z,26.13
2022-12-01T18:24:05.174Z,24.13
2022-12-01T18:26:37.783Z,27.10
2022-12-01T18:29:08.723Z,26.80
2022-12-01T18:31:36.800Z,24.73
2022-12-01T18:34:06.919Z,24.97
2022-12-01T18:36:37.573Z,22.43
2022-12-01T18:39:09.412Z,25.40
2022-12-01T18:41:39.630Z,27.47
2022-12-01T18:44:07.758Z,25.97
2022-12-01T18:46:36.473Z,22.63
2022-12-01T18:49:05.258Z,21.57
2022-12-01T18:51:35.092Z,24.33
2022-12-01T18:54:07.495Z,22.50
2022-12-01T18:56:36.918Z,24.17
2022-12-01T18:59:06.892Z,22.60
2022-12-01T19:01:37.646Z,27.80
2022-12-01T19:04:07.523Z,23.07
2022-12-01T19:06:38.098Z,25.53
2022-12-01T19:09:09.082Z,28.13
2022-12-01T19:11:42.527Z,26.93
2022-12-01T19:14:16.784Z,26.20
2022-12-01T19:16:46.389Z,29.53
2022-12-01T19:19:17.046Z,27.17
2022-12-01T19:21:45.413Z,31.33
2022-12-01T19:24:13.405Z,27.30
2022-12-01T19:26:44.632Z,30.03
2022-12-01T19:29:13.209Z,26.10
2022-12-01T19:31:41.517Z,28.83
2022-12-01T19:34:10.206Z,34.37
2022-12-01T19:36:40.040Z,30.13
2022-12-01T19:39:08.136Z,26.67
2022-12-01T19:41:38.528Z,24.50
2022-12-01T19:44:08.024Z,24.73
2022-12-01T19:46:36.096Z,26.13
2022-12-01T19:49:06.766Z,25.20
2022-12-01T19:51:42.182Z,24.23
2022-12-01T19:54:14.469Z,30.30
2022-12-01T19:56:42.905Z,24.60
2022-12-01T19:59:13.604Z,26.37
2022-12-01T20:01:42.074Z,25.37
2022-12-01T20:04:10.140Z,24.33
2022-12-01T20:06:39.032Z,22.80
2022-12-01T20:09:08.114Z,28.37
2022-12-01T20:11:37.375Z,28.47
2022-12-01T20:14:07.646Z,29.07
2022-12-01T20:16:37.270Z,33.47
2022-12-01T20:19:07.110Z,27.50
2022-12-01T20:21:39.258Z,31.67
2022-12-01T20:24:14.227Z,30.33
2022-12-01T20:26:44.644Z,26.77
2022-12-01T20:29:14.960Z,33.93
2022-12-01T20:31:45.175Z,27.20
2022-12-01T20:34:16.860Z,24.73
2022-12-01T20:36:45.694Z,27.07
2022-12-01T20:39:14.515Z,25.80
2022-12-01T20:41:43.990Z,25.00
2022-12-01T20:44:12.908Z,34.43
2022-12-01T20:46:41.871Z,28.33
2022-12-01T20:49:11.244Z,30.60
2022-12-01T20:51:39.485Z,29.60
2022-12-01T20:56:57.977Z,33.43
2022-12-01T20:59:26.110Z,33.30
2022-12-01T21:01:54.259Z,30.47
2022-12-01T21:04:23.721Z,32.30
2022-12-01T21:06:53.477Z,32.67
2022-12-01T21:09:26.076Z,34.47
2022-12-01T21:12:11.350Z,30.70
2022-12-01T21:14:43.439Z,36.67
2022-12-01T21:17:22.235Z,29.50
2022-12-01T21:19:57.344Z,28.83
2022-12-01T21:22:26.454Z,32.70
2022-12-01T21:25:03.552Z,32.10
2022-12-01T21:27:32.421Z,30.23
2022-12-01T21:30:00.429Z,28.97
2022-12-01T21:32:37.790Z,30.97
2022-12-01T21:35:17.713Z,31.67
2022-12-01T21:37:46.611Z,33.53
2022-12-01T21:40:19.920Z,34.53
2022-12-01T21:42:52.511Z,27.97
2022-12-01T21:45:26.301Z,28.83
2022-12-01T21:48:00.587Z,28.43
2022-12-01T21:50:32.911Z,31.33
2022-12-01T21:53:01.172Z,44.37
2022-12-01T21:55:38.643Z,38.83
2022-12-01T21:58:25.091Z,32.70
2022-12-01T22:00:55.728Z,25.87
2022-12-01T22:03:29.696Z,28.60
2022-12-01T22:06:28.240Z,29.37
2022-12-01T22:08:52.737Z,35.27
2022-12-01T22:11:23.659Z,31.10
2022-12-01T22:14:00.789Z,27.60
2022-12-01T22:16:35.396Z,26.50
2022-12-01T22:19:22.805Z,26.30
2022-12-01T22:21:56.044Z,27.13
2022-12-01T22:24:26.611Z,27.00
2022-12-01T22:27:14.021Z,25.57
2022-12-01T22:29:44.247Z,23.57
2022-12-01T22:32:34.370Z,25.00
2022-12-01T22:35:26.700Z,25.10
2022-12-01T22:38:01.685Z,25.13
2022-12-01T22:40:52.785Z,27.03
2022-12-01T22:43:25.772Z,24.37
2022-12-01T22:46:03.693Z,28.93
2022-12-01T22:48:36.165Z,43.73
2022-12-01T22:51:25.097Z,27.07
2022-12-01T22:53:58.827Z,22.17
2022-12-01T22:56:39.209Z,25.23
2022-12-01T22:59:15.376Z,23.37
2022-12-01T23:01:50.164Z,25.60
2022-12-01T23:04:26.582Z,24.70
2022-12-01T23:07:11.513Z,23.70
2022-12-01T23:09:45.277Z,25.67
2022-12-01T23:12:26.886Z,27.37
2022-12-01T23:14:59.674Z,26.83
2022-12-01T23:17:29.888Z,25.23
2022-12-01T23:20:18.716Z,23.50
2022-12-01T23:22:46.875Z,47.17
2022-12-01T23:25:19.720Z,29.50
2022-12-01T23:27:50.853Z,23.77
2022-12-01T23:30:20.556Z,20.60
2022-12-01T23:32:58.581Z,21.90
2022-12-01T23:35:27.911Z,18.83
2022-12-01T23:37:56.821Z,23.93
2022-12-01T23:40:32.858Z,21.33
2022-12-01T23:43:11.906Z,22.40
2022-12-01T23:45:40.789Z,21.10
2022-12-01T23:48:17.427Z,21.43
2022-12-01T23:50:49.941Z,21.90
2022-12-01T23:53:25.944Z,22.57
2022-12-01T23:55:59.772Z,22.17
2022-12-01T23:58:27.914Z,19.73
